Terminal Aerodrome Forecast
Issued by NWS Wakefield, VA

Home | Current Version | Previous Version | Text Only | Print | Product List | Glossary On
Versions: 1 2 3 4 5 6 7 8 9 10 11 12 13 14 15 16 17 18 19 20 21 22 23 24 25 26
000
FTUS41 KAKQ 030002 AAA
TAFECG
TAF AMD
KECG 030002Z 0300/0324 02003KT P6SM VCTS BKN050CB BKN110
      TEMPO 0300/0302 VRB20G30KT 1 1/2SM TSRA OVC030CB
     FM030600 VRB03KT 4SM BR SCT100 BKN250
     FM030800 00000KT 1SM BR FEW120 SCT250
     FM031300 31006KT 6SM HZ BKN250=

USA.gov is the U.S. government's official web portal to all federal, state and local government web resources and services.